sensor_id;sensor_type;location;lat;lon;timestamp;P1;durP1;ratioP1;P2;durP2;ratioP2
15398;SDS011;7797;51.428;6.756;2023-10-13T00:00:41;11.53;;;8.30;;
15398;SDS011;7797;51.428;6.756;2023-10-13T00:03:08;11.57;;;8.37;;
15398;SDS011;7797;51.428;6.756;2023-10-13T00:05:42;12.40;;;8.03;;
15398;SDS011;7797;51.428;6.756;2023-10-13T00:08:09;12.03;;;7.43;;
15398;SDS011;7797;51.428;6.756;2023-10-13T00:10:36;10.57;;;7.97;;
15398;SDS011;7797;51.428;6.756;2023-10-13T00:13:03;11.03;;;7.90;;
15398;SDS011;7797;51.428;6.756;2023-10-13T00:15:48;9.33;;;8.27;;
15398;SDS011;7797;51.428;6.756;2023-10-13T00:18:28;9.43;;;8.43;;
15398;SDS011;7797;51.428;6.756;2023-10-13T00:21:23;13.10;;;8.50;;
15398;SDS011;7797;51.428;6.756;2023-10-13T00:23:59;13.27;;;9.10;;
15398;SDS011;7797;51.428;6.756;2023-10-13T00:26:29;11.33;;;9.20;;
15398;SDS011;7797;51.428;6.756;2023-10-13T00:29:00;11.33;;;8.63;;
15398;SDS011;7797;51.428;6.756;2023-10-13T00:31:48;10.40;;;8.40;;
15398;SDS011;7797;51.428;6.756;2023-10-13T00:34:15;11.83;;;8.10;;
15398;SDS011;7797;51.428;6.756;2023-10-13T00:36:46;10.50;;;8.83;;
15398;SDS011;7797;51.428;6.756;2023-10-13T00:39:15;12.13;;;8.90;;
15398;SDS011;7797;51.428;6.756;2023-10-13T00:41:43;10.73;;;8.40;;
15398;SDS011;7797;51.428;6.756;2023-10-13T00:44:23;9.03;;;7.73;;
15398;SDS011;7797;51.428;6.756;2023-10-13T00:47:04;9.13;;;6.77;;
15398;SDS011;7797;51.428;6.756;2023-10-13T00:49:34;7.80;;;7.00;;
15398;SDS011;7797;51.428;6.756;2023-10-13T00:52:06;9.90;;;6.60;;
15398;SDS011;7797;51.428;6.756;2023-10-13T00:54:37;7.80;;;6.57;;
15398;SDS011;7797;51.428;6.756;2023-10-13T00:57:04;10.17;;;7.10;;
15398;SDS011;7797;51.428;6.756;2023-10-13T00:59:38;8.27;;;6.60;;
15398;SDS011;7797;51.428;6.756;2023-10-13T01:02:08;9.30;;;7.00;;
15398;SDS011;7797;51.428;6.756;2023-10-13T01:04:53;11.00;;;7.43;;
15398;SDS011;7797;51.428;6.756;2023-10-13T01:07:21;10.73;;;8.13;;
15398;SDS011;7797;51.428;6.756;2023-10-13T01:09:49;11.40;;;8.17;;
15398;SDS011;7797;51.428;6.756;2023-10-13T01:12:16;15.37;;;8.70;;
15398;SDS011;7797;51.428;6.756;2023-10-13T01:14:43;11.13;;;8.17;;
15398;SDS011;7797;51.428;6.756;2023-10-13T01:17:10;10.97;;;7.67;;
15398;SDS011;7797;51.428;6.756;2023-10-13T01:19:37;7.93;;;7.10;;
15398;SDS011;7797;51.428;6.756;2023-10-13T01:22:12;9.20;;;6.43;;
15398;SDS011;7797;51.428;6.756;2023-10-13T01:24:39;8.23;;;7.10;;
15398;SDS011;7797;51.428;6.756;2023-10-13T01:27:06;9.10;;;7.20;;
15398;SDS011;7797;51.428;6.756;2023-10-13T01:29:47;10.63;;;6.67;;
15398;SDS011;7797;51.428;6.756;2023-10-13T01:32:16;7.20;;;6.47;;
15398;SDS011;7797;51.428;6.756;2023-10-13T01:34:46;8.87;;;6.80;;
15398;SDS011;7797;51.428;6.756;2023-10-13T01:37:15;9.70;;;6.80;;
15398;SDS011;7797;51.428;6.756;2023-10-13T01:39:43;8.27;;;6.50;;
15398;SDS011;7797;51.428;6.756;2023-10-13T01:42:13;7.97;;;6.60;;
15398;SDS011;7797;51.428;6.756;2023-10-13T01:44:46;9.27;;;6.50;;
15398;SDS011;7797;51.428;6.756;2023-10-13T01:47:13;7.83;;;6.60;;
15398;SDS011;7797;51.428;6.756;2023-10-13T01:49:40;7.10;;;6.40;;
15398;SDS011;7797;51.428;6.756;2023-10-13T01:52:14;8.90;;;6.60;;
15398;SDS011;7797;51.428;6.756;2023-10-13T01:54:45;8.80;;;6.70;;
15398;SDS011;7797;51.428;6.756;2023-10-13T01:57:12;9.27;;;6.80;;
15398;SDS011;7797;51.428;6.756;2023-10-13T01:59:48;7.23;;;6.13;;
15398;SDS011;7797;51.428;6.756;2023-10-13T02:02:15;8.77;;;7.10;;
15398;SDS011;7797;51.428;6.756;2023-10-13T02:04:56;9.77;;;6.07;;
15398;SDS011;7797;51.428;6.756;2023-10-13T02:07:24;8.33;;;6.47;;
15398;SDS011;7797;51.428;6.756;2023-10-13T02:09:56;12.73;;;6.87;;
15398;SDS011;7797;51.428;6.756;2023-10-13T02:12:23;8.90;;;6.23;;
15398;SDS011;7797;51.428;6.756;2023-10-13T02:14:55;9.37;;;5.87;;
15398;SDS011;7797;51.428;6.756;2023-10-13T02:17:22;10.63;;;5.97;;
15398;SDS011;7797;51.428;6.756;2023-10-13T02:19:50;7.83;;;6.33;;
15398;SDS011;7797;51.428;6.756;2023-10-13T02:22:20;8.33;;;6.53;;
15398;SDS011;7797;51.428;6.756;2023-10-13T02:24:55;10.47;;;6.93;;
15398;SDS011;7797;51.428;6.756;2023-10-13T02:27:28;6.77;;;6.10;;
15398;SDS011;7797;51.428;6.756;2023-10-13T02:29:55;8.67;;;6.47;;
15398;SDS011;7797;51.428;6.756;2023-10-13T02:32:25;8.47;;;6.20;;
15398;SDS011;7797;51.428;6.756;2023-10-13T02:34:53;7.87;;;6.17;;
15398;SDS011;7797;51.428;6.756;2023-10-13T02:37:24;8.23;;;6.33;;
15398;SDS011;7797;51.428;6.756;2023-10-13T02:39:51;8.03;;;6.63;;
15398;SDS011;7797;51.428;6.756;2023-10-13T02:42:17;7.17;;;6.47;;
15398;SDS011;7797;51.428;6.756;2023-10-13T02:44:51;8.67;;;6.00;;
15398;SDS011;7797;51.428;6.756;2023-10-13T02:47:18;8.27;;;6.13;;
15398;SDS011;7797;51.428;6.756;2023-10-13T02:49:46;8.17;;;6.57;;
15398;SDS011;7797;51.428;6.756;2023-10-13T02:52:14;10.77;;;6.70;;
15398;SDS011;7797;51.428;6.756;2023-10-13T02:54:41;7.17;;;6.33;;
15398;SDS011;7797;51.428;6.756;2023-10-13T02:57:17;8.87;;;6.67;;
15398;SDS011;7797;51.428;6.756;2023-10-13T02:59:44;7.40;;;6.23;;
15398;SDS011;7797;51.428;6.756;2023-10-13T03:02:16;8.03;;;6.50;;
15398;SDS011;7797;51.428;6.756;2023-10-13T03:04:54;9.33;;;6.87;;
15398;SDS011;7797;51.428;6.756;2023-10-13T03:07:36;8.53;;;6.07;;
15398;SDS011;7797;51.428;6.756;2023-10-13T03:10:03;7.70;;;6.37;;
15398;SDS011;7797;51.428;6.756;2023-10-13T03:12:37;7.70;;;6.00;;
15398;SDS011;7797;51.428;6.756;2023-10-13T03:15:05;7.37;;;5.80;;
15398;SDS011;7797;51.428;6.756;2023-10-13T03:17:46;8.43;;;6.37;;
15398;SDS011;7797;51.428;6.756;2023-10-13T03:20:14;7.87;;;6.00;;
15398;SDS011;7797;51.428;6.756;2023-10-13T03:22:43;8.47;;;6.67;;
15398;SDS011;7797;51.428;6.756;2023-10-13T03:25:13;7.30;;;6.57;;
15398;SDS011;7797;51.428;6.756;2023-10-13T03:28:03;6.43;;;5.77;;
15398;SDS011;7797;51.428;6.756;2023-10-13T03:30:34;6.83;;;6.13;;
15398;SDS011;7797;51.428;6.756;2023-10-13T03:33:05;7.27;;;6.17;;
15398;SDS011;7797;51.428;6.756;2023-10-13T03:35:39;7.13;;;6.43;;
15398;SDS011;7797;51.428;6.756;2023-10-13T03:38:09;8.70;;;6.23;;
15398;SDS011;7797;51.428;6.756;2023-10-13T03:40:50;7.73;;;6.33;;
15398;SDS011;7797;51.428;6.756;2023-10-13T03:43:34;8.20;;;6.03;;
15398;SDS011;7797;51.428;6.756;2023-10-13T03:46:12;7.30;;;6.57;;
15398;SDS011;7797;51.428;6.756;2023-10-13T03:48:39;8.50;;;6.50;;
15398;SDS011;7797;51.428;6.756;2023-10-13T03:51:19;7.43;;;6.40;;
15398;SDS011;7797;51.428;6.756;2023-10-13T03:53:46;8.33;;;6.70;;
15398;SDS011;7797;51.428;6.756;2023-10-13T03:56:20;6.90;;;6.30;;
15398;SDS011;7797;51.428;6.756;2023-10-13T03:59:14;7.83;;;6.40;;
15398;SDS011;7797;51.428;6.756;2023-10-13T04:01:46;8.27;;;6.53;;
15398;SDS011;7797;51.428;6.756;2023-10-13T04:04:25;7.60;;;6.87;;
15398;SDS011;7797;51.428;6.756;2023-10-13T04:07:03;10.37;;;6.83;;
15398;SDS011;7797;51.428;6.756;2023-10-13T04:09:35;9.40;;;6.97;;
15398;SDS011;7797;51.428;6.756;2023-10-13T04:12:14;7.23;;;6.40;;
15398;SDS011;7797;51.428;6.756;2023-10-13T04:14:59;7.70;;;7.00;;
15398;SDS011;7797;51.428;6.756;2023-10-13T04:17:32;7.57;;;6.40;;
15398;SDS011;7797;51.428;6.756;2023-10-13T04:20:07;9.13;;;6.63;;
15398;SDS011;7797;51.428;6.756;2023-10-13T04:22:35;8.83;;;6.60;;
15398;SDS011;7797;51.428;6.756;2023-10-13T04:25:19;7.63;;;6.90;;
15398;SDS011;7797;51.428;6.756;2023-10-13T04:28:06;9.40;;;7.03;;
15398;SDS011;7797;51.428;6.756;2023-10-13T04:30:46;10.30;;;6.80;;
15398;SDS011;7797;51.428;6.756;2023-10-13T04:33:19;9.27;;;6.63;;
15398;SDS011;7797;51.428;6.756;2023-10-13T04:38:41;8.57;;;6.47;;
15398;SDS011;7797;51.428;6.756;2023-10-13T04:41:30;9.37;;;7.23;;
15398;SDS011;7797;51.428;6.756;2023-10-13T04:44:02;8.00;;;7.20;;
15398;SDS011;7797;51.428;6.756;2023-10-13T04:46:52;10.00;;;7.00;;
15398;SDS011;7797;51.428;6.756;2023-10-13T04:49:30;9.10;;;6.97;;
15398;SDS011;7797;51.428;6.756;2023-10-13T04:52:09;10.23;;;6.97;;
15398;SDS011;7797;51.428;6.756;2023-10-13T04:57:15;11.20;;;7.70;;
15398;SDS011;7797;51.428;6.756;2023-10-13T05:00:02;12.57;;;7.40;;
15398;SDS011;7797;51.428;6.756;2023-10-13T05:02:38;8.00;;;6.67;;
15398;SDS011;7797;51.428;6.756;2023-10-13T05:05:22;8.23;;;7.20;;
15398;SDS011;7797;51.428;6.756;2023-10-13T05:07:51;11.13;;;7.13;;
15398;SDS011;7797;51.428;6.756;2023-10-13T05:10:37;9.83;;;7.70;;
15398;SDS011;7797;51.428;6.756;2023-10-13T05:13:23;9.03;;;6.70;;
15398;SDS011;7797;51.428;6.756;2023-10-13T05:16:08;8.40;;;7.10;;
15398;SDS011;7797;51.428;6.756;2023-10-13T05:18:54;8.43;;;6.97;;
15398;SDS011;7797;51.428;6.756;2023-10-13T05:21:39;10.27;;;7.53;;
15398;SDS011;7797;51.428;6.756;2023-10-13T05:24:24;9.03;;;6.77;;
15398;SDS011;7797;51.428;6.756;2023-10-13T05:27:10;9.50;;;7.23;;
15398;SDS011;7797;51.428;6.756;2023-10-13T05:29:55;8.33;;;6.70;;
15398;SDS011;7797;51.428;6.756;2023-10-13T05:32:41;9.30;;;7.33;;
15398;SDS011;7797;51.428;6.756;2023-10-13T05:35:26;9.87;;;7.60;;
15398;SDS011;7797;51.428;6.756;2023-10-13T05:38:11;11.77;;;8.03;;
15398;SDS011;7797;51.428;6.756;2023-10-13T05:40:57;8.47;;;7.63;;
15398;SDS011;7797;51.428;6.756;2023-10-13T05:44:06;9.30;;;7.27;;
15398;SDS011;7797;51.428;6.756;2023-10-13T05:46:52;8.73;;;7.63;;
15398;SDS011;7797;51.428;6.756;2023-10-13T05:49:48;13.23;;;8.70;;
15398;SDS011;7797;51.428;6.756;2023-10-13T05:52:31;12.60;;;7.67;;
15398;SDS011;7797;51.428;6.756;2023-10-13T05:55:16;10.67;;;7.10;;
15398;SDS011;7797;51.428;6.756;2023-10-13T05:58:02;8.40;;;6.90;;
15398;SDS011;7797;51.428;6.756;2023-10-13T06:00:47;10.67;;;7.73;;
15398;SDS011;7797;51.428;6.756;2023-10-13T06:03:32;8.47;;;6.53;;
15398;SDS011;7797;51.428;6.756;2023-10-13T06:06:18;10.00;;;6.90;;
15398;SDS011;7797;51.428;6.756;2023-10-13T06:09:07;12.83;;;7.73;;
15398;SDS011;7797;51.428;6.756;2023-10-13T06:11:52;11.33;;;6.67;;
15398;SDS011;7797;51.428;6.756;2023-10-13T06:14:37;10.60;;;6.40;;
15398;SDS011;7797;51.428;6.756;2023-10-13T06:17:23;9.50;;;6.07;;
15398;SDS011;7797;51.428;6.756;2023-10-13T06:20:08;8.37;;;6.17;;
15398;SDS011;7797;51.428;6.756;2023-10-13T06:22:54;10.03;;;6.13;;
15398;SDS011;7797;51.428;6.756;2023-10-13T06:25:39;8.67;;;6.17;;
15398;SDS011;7797;51.428;6.756;2023-10-13T06:28:25;9.13;;;6.23;;
15398;SDS011;7797;51.428;6.756;2023-10-13T06:31:08;12.00;;;6.70;;
15398;SDS011;7797;51.428;6.756;2023-10-13T06:33:38;10.77;;;5.77;;
15398;SDS011;7797;51.428;6.756;2023-10-13T06:36:11;12.47;;;6.07;;
15398;SDS011;7797;51.428;6.756;2023-10-13T06:38:38;13.87;;;6.20;;
15398;SDS011;7797;51.428;6.756;2023-10-13T06:41:06;13.27;;;6.50;;
15398;SDS011;7797;51.428;6.756;2023-10-13T06:43:36;9.70;;;5.90;;
15398;SDS011;7797;51.428;6.756;2023-10-13T06:46:07;8.30;;;5.03;;
15398;SDS011;7797;51.428;6.756;2023-10-13T06:48:41;7.50;;;4.83;;
15398;SDS011;7797;51.428;6.756;2023-10-13T06:51:09;7.37;;;5.20;;
15398;SDS011;7797;51.428;6.756;2023-10-13T06:53:45;5.57;;;4.50;;
15398;SDS011;7797;51.428;6.756;2023-10-13T06:56:14;8.10;;;4.83;;
15398;SDS011;7797;51.428;6.756;2023-10-13T06:58:54;9.40;;;5.37;;
15398;SDS011;7797;51.428;6.756;2023-10-13T07:01:37;8.10;;;4.63;;
15398;SDS011;7797;51.428;6.756;2023-10-13T07:04:13;6.83;;;5.50;;
15398;SDS011;7797;51.428;6.756;2023-10-13T07:06:41;9.30;;;4.90;;
15398;SDS011;7797;51.428;6.756;2023-10-13T07:09:15;8.57;;;4.70;;
15398;SDS011;7797;51.428;6.756;2023-10-13T07:12:03;7.07;;;4.43;;
15398;SDS011;7797;51.428;6.756;2023-10-13T07:14:49;9.80;;;4.90;;
15398;SDS011;7797;51.428;6.756;2023-10-13T07:17:24;6.33;;;5.23;;
15398;SDS011;7797;51.428;6.756;2023-10-13T07:19:52;10.00;;;5.03;;
15398;SDS011;7797;51.428;6.756;2023-10-13T07:22:20;9.10;;;5.27;;
15398;SDS011;7797;51.428;6.756;2023-10-13T07:24:47;7.50;;;5.17;;
15398;SDS011;7797;51.428;6.756;2023-10-13T07:27:16;5.70;;;5.10;;
15398;SDS011;7797;51.428;6.756;2023-10-13T07:29:50;8.80;;;5.27;;
15398;SDS011;7797;51.428;6.756;2023-10-13T07:32:41;9.47;;;5.30;;
15398;SDS011;7797;51.428;6.756;2023-10-13T07:35:17;9.17;;;5.67;;
15398;SDS011;7797;51.428;6.756;2023-10-13T07:37:52;8.93;;;5.13;;
15398;SDS011;7797;51.428;6.756;2023-10-13T07:40:26;10.13;;;6.10;;
15398;SDS011;7797;51.428;6.756;2023-10-13T07:42:53;9.90;;;6.47;;
15398;SDS011;7797;51.428;6.756;2023-10-13T07:45:37;8.07;;;6.37;;
15398;SDS011;7797;51.428;6.756;2023-10-13T07:48:09;10.10;;;6.53;;
15398;SDS011;7797;51.428;6.756;2023-10-13T07:50:58;12.40;;;7.10;;
15398;SDS011;7797;51.428;6.756;2023-10-13T07:53:39;10.50;;;6.47;;
15398;SDS011;7797;51.428;6.756;2023-10-13T07:56:10;13.00;;;6.73;;
15398;SDS011;7797;51.428;6.756;2023-10-13T07:58:40;9.60;;;7.10;;
15398;SDS011;7797;51.428;6.756;2023-10-13T08:01:26;8.03;;;6.63;;
15398;SDS011;7797;51.428;6.756;2023-10-13T08:03:53;9.77;;;6.90;;
15398;SDS011;7797;51.428;6.756;2023-10-13T08:06:38;10.83;;;7.30;;
15398;SDS011;7797;51.428;6.756;2023-10-13T08:09:11;8.13;;;6.83;;
15398;SDS011;7797;51.428;6.756;2023-10-13T08:11:56;15.10;;;7.00;;
15398;SDS011;7797;51.428;6.756;2023-10-13T08:14:23;11.00;;;6.73;;
15398;SDS011;7797;51.428;6.756;2023-10-13T08:17:07;10.53;;;6.67;;
15398;SDS011;7797;51.428;6.756;2023-10-13T08:19:38;10.83;;;7.07;;
15398;SDS011;7797;51.428;6.756;2023-10-13T08:22:16;12.60;;;7.77;;
15398;SDS011;7797;51.428;6.756;2023-10-13T08:24:51;14.60;;;8.50;;
15398;SDS011;7797;51.428;6.756;2023-10-13T08:27:19;11.03;;;7.30;;
15398;SDS011;7797;51.428;6.756;2023-10-13T08:30:14;10.50;;;6.53;;
15398;SDS011;7797;51.428;6.756;2023-10-13T08:32:55;11.53;;;7.70;;
15398;SDS011;7797;51.428;6.756;2023-10-13T08:35:26;11.90;;;7.77;;
15398;SDS011;7797;51.428;6.756;2023-10-13T08:37:56;12.73;;;6.10;;
15398;SDS011;7797;51.428;6.756;2023-10-13T08:40:44;8.07;;;6.67;;
15398;SDS011;7797;51.428;6.756;2023-10-13T08:43:22;10.47;;;6.30;;
15398;SDS011;7797;51.428;6.756;2023-10-13T08:45:50;8.63;;;5.60;;
15398;SDS011;7797;51.428;6.756;2023-10-13T08:48:18;8.03;;;5.70;;
15398;SDS011;7797;51.428;6.756;2023-10-13T08:50:46;10.90;;;5.60;;
15398;SDS011;7797;51.428;6.756;2023-10-13T08:56:00;8.87;;;5.63;;
15398;SDS011;7797;51.428;6.756;2023-10-13T09:01:21;8.20;;;5.17;;
15398;SDS011;7797;51.428;6.756;2023-10-13T09:04:12;9.50;;;4.80;;
15398;SDS011;7797;51.428;6.756;2023-10-13T09:09:26;8.60;;;5.13;;
15398;SDS011;7797;51.428;6.756;2023-10-13T09:11:54;9.00;;;5.13;;
15398;SDS011;7797;51.428;6.756;2023-10-13T09:14:35;7.20;;;4.93;;
15398;SDS011;7797;51.428;6.756;2023-10-13T09:17:05;12.37;;;4.53;;
15398;SDS011;7797;51.428;6.756;2023-10-13T09:19:55;11.20;;;5.57;;
15398;SDS011;7797;51.428;6.756;2023-10-13T09:22:26;13.53;;;6.10;;
15398;SDS011;7797;51.428;6.756;2023-10-13T09:25:02;7.00;;;4.60;;
15398;SDS011;7797;51.428;6.756;2023-10-13T09:27:32;8.10;;;4.87;;
15398;SDS011;7797;51.428;6.756;2023-10-13T09:30:00;11.53;;;4.80;;
15398;SDS011;7797;51.428;6.756;2023-10-13T09:32:45;7.17;;;4.20;;
15398;SDS011;7797;51.428;6.756;2023-10-13T09:35:18;9.70;;;4.23;;
15398;SDS011;7797;51.428;6.756;2023-10-13T09:37:49;7.10;;;4.20;;
15398;SDS011;7797;51.428;6.756;2023-10-13T09:40:17;8.17;;;4.70;;
15398;SDS011;7797;51.428;6.756;2023-10-13T09:43:00;7.33;;;4.40;;
15398;SDS011;7797;51.428;6.756;2023-10-13T09:45:41;8.20;;;4.80;;
15398;SDS011;7797;51.428;6.756;2023-10-13T09:48:47;8.87;;;4.93;;
15398;SDS011;7797;51.428;6.756;2023-10-13T09:51:16;11.63;;;4.73;;
15398;SDS011;7797;51.428;6.756;2023-10-13T09:53:52;9.63;;;4.70;;
15398;SDS011;7797;51.428;6.756;2023-10-13T09:56:48;9.70;;;4.70;;
15398;SDS011;7797;51.428;6.756;2023-10-13T09:59:29;7.80;;;4.77;;
15398;SDS011;7797;51.428;6.756;2023-10-13T10:02:01;7.23;;;4.40;;
15398;SDS011;7797;51.428;6.756;2023-10-13T10:04:36;7.87;;;5.03;;
15398;SDS011;7797;51.428;6.756;2023-10-13T10:07:24;11.83;;;4.50;;
15398;SDS011;7797;51.428;6.756;2023-10-13T10:09:59;4.70;;;4.30;;
15398;SDS011;7797;51.428;6.756;2023-10-13T10:12:44;9.17;;;5.23;;
15398;SDS011;7797;51.428;6.756;2023-10-13T10:17:54;7.47;;;4.93;;
15398;SDS011;7797;51.428;6.756;2023-10-13T10:20:36;5.80;;;4.53;;
15398;SDS011;7797;51.428;6.756;2023-10-13T10:23:10;8.47;;;5.20;;
15398;SDS011;7797;51.428;6.756;2023-10-13T10:25:49;9.17;;;5.17;;
15398;SDS011;7797;51.428;6.756;2023-10-13T10:28:19;8.75;;;5.30;;
15398;SDS011;7797;51.428;6.756;2023-10-13T10:30:46;8.97;;;5.23;;
15398;SDS011;7797;51.428;6.756;2023-10-13T10:33:13;9.10;;;5.47;;
15398;SDS011;7797;51.428;6.756;2023-10-13T10:35:42;11.50;;;5.25;;
15398;SDS011;7797;51.428;6.756;2023-10-13T10:40:56;10.55;;;5.20;;
15398;SDS011;7797;51.428;6.756;2023-10-13T10:43:28;7.47;;;5.03;;
15398;SDS011;7797;51.428;6.756;2023-10-13T10:48:57;8.00;;;5.80;;
15398;SDS011;7797;51.428;6.756;2023-10-13T10:51:27;7.90;;;5.82;;
15398;SDS011;7797;51.428;6.756;2023-10-13T10:53:58;6.03;;;5.40;;
15398;SDS011;7797;51.428;6.756;2023-10-13T10:56:38;8.13;;;5.70;;
15398;SDS011;7797;51.428;6.756;2023-10-13T10:59:05;8.67;;;6.23;;
15398;SDS011;7797;51.428;6.756;2023-10-13T11:01:46;7.50;;;5.77;;
15398;SDS011;7797;51.428;6.756;2023-10-13T11:04:15;10.13;;;6.00;;
15398;SDS011;7797;51.428;6.756;2023-10-13T11:06:47;11.75;;;6.30;;
15398;SDS011;7797;51.428;6.756;2023-10-13T11:09:15;10.38;;;5.97;;
15398;SDS011;7797;51.428;6.756;2023-10-13T11:14:30;13.88;;;5.60;;
15398;SDS011;7797;51.428;6.756;2023-10-13T11:16:59;8.70;;;5.60;;
15398;SDS011;7797;51.428;6.756;2023-10-13T11:19:34;7.75;;;5.75;;
15398;SDS011;7797;51.428;6.756;2023-10-13T11:22:14;7.57;;;5.43;;
15398;SDS011;7797;51.428;6.756;2023-10-13T11:25:04;9.45;;;5.35;;
15398;SDS011;7797;51.428;6.756;2023-10-13T11:27:38;7.70;;;5.40;;
15398;SDS011;7797;51.428;6.756;2023-10-13T11:30:15;7.60;;;5.20;;
15398;SDS011;7797;51.428;6.756;2023-10-13T11:33:02;7.07;;;4.70;;
15398;SDS011;7797;51.428;6.756;2023-10-13T11:35:33;12.65;;;5.25;;
15398;SDS011;7797;51.428;6.756;2023-10-13T11:38:30;10.43;;;4.95;;
15398;SDS011;7797;51.428;6.756;2023-10-13T11:41:07;9.02;;;5.10;;
15398;SDS011;7797;51.428;6.756;2023-10-13T11:43:46;6.68;;;5.00;;
15398;SDS011;7797;51.428;6.756;2023-10-13T11:46:17;10.88;;;5.22;;
15398;SDS011;7797;51.428;6.756;2023-10-13T11:49:05;11.77;;;5.90;;
15398;SDS011;7797;51.428;6.756;2023-10-13T11:51:42;12.25;;;5.07;;
15398;SDS011;7797;51.428;6.756;2023-10-13T11:54:16;8.35;;;4.65;;
15398;SDS011;7797;51.428;6.756;2023-10-13T11:56:45;8.85;;;4.90;;
15398;SDS011;7797;51.428;6.756;2023-10-13T11:59:12;10.38;;;5.10;;
15398;SDS011;7797;51.428;6.756;2023-10-13T12:01:46;12.68;;;5.20;;
15398;SDS011;7797;51.428;6.756;2023-10-13T12:04:32;13.65;;;5.50;;
15398;SDS011;7797;51.428;6.756;2023-10-13T12:07:09;11.15;;;4.75;;
15398;SDS011;7797;51.428;6.756;2023-10-13T12:09:53;9.38;;;5.05;;
15398;SDS011;7797;51.428;6.756;2023-10-13T12:12:27;9.50;;;5.00;;
15398;SDS011;7797;51.428;6.756;2023-10-13T12:14:54;15.65;;;6.10;;
15398;SDS011;7797;51.428;6.756;2023-10-13T12:19:52;9.85;;;4.80;;
15398;SDS011;7797;51.428;6.756;2023-10-13T12:22:28;11.93;;;4.70;;
15398;SDS011;7797;51.428;6.756;2023-10-13T12:25:02;10.30;;;5.15;;
15398;SDS011;7797;51.428;6.756;2023-10-13T12:27:45;8.65;;;5.25;;
15398;SDS011;7797;51.428;6.756;2023-10-13T12:30:15;7.38;;;4.70;;
15398;SDS011;7797;51.428;6.756;2023-10-13T12:32:49;11.00;;;4.70;;
15398;SDS011;7797;51.428;6.756;2023-10-13T12:35:35;11.50;;;5.10;;
15398;SDS011;7797;51.428;6.756;2023-10-13T12:38:25;11.57;;;4.85;;
15398;SDS011;7797;51.428;6.756;2023-10-13T12:41:10;9.30;;;4.90;;
15398;SDS011;7797;51.428;6.756;2023-10-13T12:44:02;9.48;;;4.15;;
15398;SDS011;7797;51.428;6.756;2023-10-13T12:46:52;8.70;;;4.95;;
15398;SDS011;7797;51.428;6.756;2023-10-13T12:49:43;12.77;;;5.10;;
15398;SDS011;7797;51.428;6.756;2023-10-13T12:52:16;12.50;;;5.50;;
15398;SDS011;7797;51.428;6.756;2023-10-13T12:54:43;13.48;;;5.00;;
15398;SDS011;7797;51.428;6.756;2023-10-13T12:57:14;12.13;;;5.50;;
15398;SDS011;7797;51.428;6.756;2023-10-13T12:59:42;8.63;;;4.40;;
15398;SDS011;7797;51.428;6.756;2023-10-13T13:02:09;12.77;;;4.70;;
15398;SDS011;7797;51.428;6.756;2023-10-13T13:04:41;14.02;;;4.57;;
15398;SDS011;7797;51.428;6.756;2023-10-13T13:07:10;13.48;;;5.03;;
15398;SDS011;7797;51.428;6.756;2023-10-13T13:09:40;14.00;;;4.70;;
15398;SDS011;7797;51.428;6.756;2023-10-13T13:12:07;13.32;;;5.18;;
15398;SDS011;7797;51.428;6.756;2023-10-13T13:14:34;10.32;;;4.85;;
15398;SDS011;7797;51.428;6.756;2023-10-13T13:17:10;9.90;;;4.50;;
15398;SDS011;7797;51.428;6.756;2023-10-13T13:19:38;9.65;;;4.30;;
15398;SDS011;7797;51.428;6.756;2023-10-13T13:22:08;14.82;;;4.75;;
15398;SDS011;7797;51.428;6.756;2023-10-13T13:24:43;10.88;;;4.75;;
15398;SDS011;7797;51.428;6.756;2023-10-13T13:27:11;10.48;;;4.90;;
15398;SDS011;7797;51.428;6.756;2023-10-13T13:29:44;11.55;;;4.50;;
15398;SDS011;7797;51.428;6.756;2023-10-13T13:32:11;12.82;;;5.03;;
15398;SDS011;7797;51.428;6.756;2023-10-13T13:34:51;16.67;;;5.40;;
15398;SDS011;7797;51.428;6.756;2023-10-13T13:37:25;12.02;;;5.30;;
15398;SDS011;7797;51.428;6.756;2023-10-13T13:39:55;11.85;;;5.07;;
15398;SDS011;7797;51.428;6.756;2023-10-13T13:42:22;11.35;;;5.00;;
15398;SDS011;7797;51.428;6.756;2023-10-13T13:44:49;12.07;;;4.75;;
15398;SDS011;7797;51.428;6.756;2023-10-13T13:47:16;7.95;;;4.45;;
15398;SDS011;7797;51.428;6.756;2023-10-13T13:49:49;12.00;;;4.75;;
15398;SDS011;7797;51.428;6.756;2023-10-13T13:52:19;8.82;;;4.43;;
15398;SDS011;7797;51.428;6.756;2023-10-13T13:55:00;19.85;;;4.88;;
15398;SDS011;7797;51.428;6.756;2023-10-13T13:57:29;8.85;;;4.20;;
15398;SDS011;7797;51.428;6.756;2023-10-13T13:59:56;9.77;;;4.32;;
15398;SDS011;7797;51.428;6.756;2023-10-13T14:02:24;8.15;;;4.78;;
15398;SDS011;7797;51.428;6.756;2023-10-13T14:04:53;10.30;;;4.50;;
15398;SDS011;7797;51.428;6.756;2023-10-13T14:07:20;9.00;;;4.20;;
15398;SDS011;7797;51.428;6.756;2023-10-13T14:09:48;8.25;;;4.30;;
15398;SDS011;7797;51.428;6.756;2023-10-13T14:12:18;7.35;;;4.25;;
15398;SDS011;7797;51.428;6.756;2023-10-13T14:15:09;8.15;;;4.47;;
15398;SDS011;7797;51.428;6.756;2023-10-13T14:17:46;11.63;;;4.35;;
15398;SDS011;7797;51.428;6.756;2023-10-13T14:20:16;7.07;;;4.32;;
15398;SDS011;7797;51.428;6.756;2023-10-13T14:22:47;9.25;;;4.13;;
15398;SDS011;7797;51.428;6.756;2023-10-13T14:25:15;12.38;;;4.30;;
15398;SDS011;7797;51.428;6.756;2023-10-13T14:27:43;10.10;;;4.32;;
15398;SDS011;7797;51.428;6.756;2023-10-13T14:30:10;10.88;;;4.55;;
15398;SDS011;7797;51.428;6.756;2023-10-13T14:32:52;12.77;;;4.32;;
15398;SDS011;7797;51.428;6.756;2023-10-13T14:35:19;9.70;;;4.57;;
15398;SDS011;7797;51.428;6.756;2023-10-13T14:37:46;12.63;;;5.07;;
15398;SDS011;7797;51.428;6.756;2023-10-13T14:40:13;10.95;;;4.50;;
15398;SDS011;7797;51.428;6.756;2023-10-13T14:42:42;9.63;;;4.40;;
15398;SDS011;7797;51.428;6.756;2023-10-13T14:45:09;10.43;;;4.88;;
15398;SDS011;7797;51.428;6.756;2023-10-13T14:47:40;12.27;;;5.30;;
15398;SDS011;7797;51.428;6.756;2023-10-13T14:50:08;13.38;;;5.00;;
15398;SDS011;7797;51.428;6.756;2023-10-13T14:52:49;10.70;;;5.25;;
15398;SDS011;7797;51.428;6.756;2023-10-13T14:55:18;10.15;;;4.72;;
15398;SDS011;7797;51.428;6.756;2023-10-13T14:58:05;9.38;;;4.45;;
15398;SDS011;7797;51.428;6.756;2023-10-13T15:00:34;12.95;;;4.93;;
15398;SDS011;7797;51.428;6.756;2023-10-13T15:03:01;13.23;;;5.70;;
15398;SDS011;7797;51.428;6.756;2023-10-13T15:05:28;13.70;;;5.28;;
15398;SDS011;7797;51.428;6.756;2023-10-13T15:07:59;10.00;;;5.05;;
15398;SDS011;7797;51.428;6.756;2023-10-13T15:10:26;12.15;;;5.00;;
15398;SDS011;7797;51.428;6.756;2023-10-13T15:12:53;8.95;;;4.72;;
15398;SDS011;7797;51.428;6.756;2023-10-13T15:15:20;10.07;;;5.00;;
15398;SDS011;7797;51.428;6.756;2023-10-13T15:17:46;6.70;;;4.32;;
15398;SDS011;7797;51.428;6.756;2023-10-13T15:20:14;10.70;;;5.03;;
15398;SDS011;7797;51.428;6.756;2023-10-13T15:22:44;11.15;;;4.82;;
15398;SDS011;7797;51.428;6.756;2023-10-13T15:25:16;8.50;;;4.78;;
15398;SDS011;7797;51.428;6.756;2023-10-13T15:27:59;14.20;;;5.10;;
15398;SDS011;7797;51.428;6.756;2023-10-13T15:30:29;9.27;;;4.50;;
15398;SDS011;7797;51.428;6.756;2023-10-13T15:33:19;9.10;;;4.88;;
15398;SDS011;7797;51.428;6.756;2023-10-13T15:35:46;12.48;;;5.00;;
15398;SDS011;7797;51.428;6.756;2023-10-13T15:38:13;9.27;;;4.72;;
15398;SDS011;7797;51.428;6.756;2023-10-13T15:40:44;9.80;;;4.50;;
15398;SDS011;7797;51.428;6.756;2023-10-13T15:43:11;11.77;;;4.32;;
15398;SDS011;7797;51.428;6.756;2023-10-13T15:45:39;7.78;;;3.90;;
15398;SDS011;7797;51.428;6.756;2023-10-13T15:48:06;5.57;;;4.10;;
15398;SDS011;7797;51.428;6.756;2023-10-13T15:50:36;9.00;;;4.55;;
15398;SDS011;7797;51.428;6.756;2023-10-13T15:53:08;6.97;;;3.88;;
15398;SDS011;7797;51.428;6.756;2023-10-13T15:55:39;10.02;;;4.13;;
15398;SDS011;7797;51.428;6.756;2023-10-13T15:58:06;9.15;;;4.47;;
15398;SDS011;7797;51.428;6.756;2023-10-13T16:00:35;8.25;;;4.78;;
15398;SDS011;7797;51.428;6.756;2023-10-13T16:03:02;7.90;;;4.30;;
15398;SDS011;7797;51.428;6.756;2023-10-13T16:05:37;7.75;;;4.18;;
15398;SDS011;7797;51.428;6.756;2023-10-13T16:08:06;8.80;;;4.70;;